Time;durP1;ratioP1;P1;durP2;ratioP2;P2;SDS_P1;SDS_P2;PMS_P1;PMS_P2;Temp;Humidity;BMP_temperature;BMP_pressure;BME280_temperature;BME280_humidity;BME280_pressure;Samples;Min_cycle;Max_cycle;Signal;HPM_P1;HPM_P2
2023/04/02 00:01:38;;;;;;;9.70;8.80;;;;;;;6.67;100.00;101001.28;5062620;28;20029;-56
2023/04/02 00:04:13;;;;;;;10.02;9.13;;;;;;;6.64;100.00;101001.47;5061351;28;20053;-56
2023/04/02 00:06:43;;;;;;;11.40;10.30;;;;;;;6.65;100.00;101013.72;5059345;28;20106;-55
2023/04/02 00:09:21;;;;;;;10.50;9.60;;;;;;;6.64;100.00;101006.75;5055376;28;20508;-55
2023/04/02 00:11:53;;;;;;;9.95;9.05;;;;;;;6.61;100.00;101021.88;5060160;28;20031;-56
2023/04/02 00:14:32;;;;;;;9.18;8.38;;;;;;;6.59;100.00;101018.50;5056122;28;20036;-55
2023/04/02 00:17:00;;;;;;;9.35;8.45;;;;;;;6.57;100.00;101023.00;5062036;28;20034;-52
2023/04/02 00:19:35;;;;;;;10.60;9.60;;;;;;;6.56;100.00;101021.31;5058819;28;20033;-55
2023/04/02 00:22:01;;;;;;;10.80;9.80;;;;;;;6.59;100.00;101029.88;5059898;28;20041;-55
2023/04/02 00:24:26;;;;;;;11.35;10.25;;;;;;;6.59;100.00;101029.88;5054246;28;20501;-54
2023/04/02 00:26:53;;;;;;;12.05;10.57;;;;;;;6.61;100.00;101035.09;5053078;28;20078;-56
2023/04/02 00:29:19;;;;;;;11.02;10.02;;;;;;;6.60;100.00;101043.97;5052951;28;20501;-55
2023/04/02 00:31:48;;;;;;;11.32;10.23;;;;;;;6.54;100.00;101041.66;5062318;28;20039;-53
2023/04/02 00:34:18;;;;;;;11.20;10.20;;;;;;;6.50;100.00;101051.53;5056720;28;20036;-55
2023/04/02 00:36:45;;;;;;;11.15;10.23;;;;;;;6.46;100.00;101052.63;5055217;28;20564;-56
2023/04/02 00:39:40;;;;;;;11.73;10.63;;;;;;;6.50;100.00;101058.63;5059946;28;20028;-55
2023/04/02 00:42:05;;;;;;;10.93;9.93;;;;;;;6.43;100.00;101063.38;5053480;28;20520;-56
2023/04/02 00:44:37;;;;;;;10.18;9.18;;;;;;;6.40;100.00;101063.53;5061009;28;20052;-55
2023/04/02 00:47:14;;;;;;;11.60;10.45;;;;;;;6.35;100.00;101065.59;5066879;28;20033;-54
2023/04/02 00:49:40;;;;;;;11.18;9.95;;;;;;;6.33;100.00;101073.59;5060009;28;20036;-56
2023/04/02 00:52:15;;;;;;;11.40;10.20;;;;;;;6.29;100.00;101075.56;5052667;28;20033;-56
2023/04/02 00:54:45;;;;;;;10.55;9.55;;;;;;;6.25;100.00;101078.44;5072044;28;20059;-56
2023/04/02 00:57:16;;;;;;;11.15;10.05;;;;;;;6.25;100.00;101081.06;5058230;28;20040;-56
2023/04/02 00:59:52;;;;;;;11.68;10.63;;;;;;;6.22;100.00;101086.50;5055887;28;20033;-56
2023/04/02 01:02:17;;;;;;;11.88;10.68;;;;;;;6.20;100.00;101094.50;5056155;28;20028;-56
2023/04/02 01:04:54;;;;;;;11.43;10.33;;;;;;;6.23;100.00;101099.63;5061043;28;20114;-56
2023/04/02 01:07:32;;;;;;;11.77;10.70;;;;;;;6.20;100.00;101102.41;5057387;28;20831;-55
2023/04/02 01:10:03;;;;;;;11.77;10.73;;;;;;;6.20;100.00;101106.84;5070354;28;20035;-56
2023/04/02 01:12:54;;;;;;;11.73;10.65;;;;;;;6.20;100.00;101105.06;5059300;28;20029;-56
2023/04/02 01:15:58;;;;;;;10.95;9.95;;;;;;;6.21;100.00;101111.16;5056530;28;20025;-55
2023/04/02 01:18:49;;;;;;;12.10;11.00;;;;;;;6.15;100.00;101115.00;5053382;28;20040;-55
2023/04/02 01:21:24;;;;;;;11.80;10.63;;;;;;;6.16;100.00;101119.34;5057985;28;20040;-56
2023/04/02 01:24:03;;;;;;;11.57;10.45;;;;;;;6.15;100.00;101122.06;5056166;28;20033;-56
2023/04/02 01:26:56;;;;;;;11.45;10.10;;;;;;;6.13;100.00;101126.56;5057598;28;20039;-56
2023/04/02 01:29:31;;;;;;;12.07;10.98;;;;;;;6.10;100.00;101130.22;5061326;28;20492;-56
2023/04/02 01:32:04;;;;;;;12.43;11.15;;;;;;;6.09;100.00;101125.88;5055749;28;20028;-56
2023/04/02 01:34:31;;;;;;;11.65;10.57;;;;;;;6.08;100.00;101134.72;5059511;28;20027;-56
2023/04/02 01:37:31;;;;;;;12.25;10.98;;;;;;;6.09;100.00;101139.91;5056051;28;20043;-57
2023/04/02 01:40:18;;;;;;;12.02;10.90;;;;;;;6.11;100.00;101148.59;5051908;28;20120;-56
2023/04/02 01:43:22;;;;;;;12.10;10.95;;;;;;;6.11;100.00;101153.88;5058649;28;20525;-56
2023/04/02 01:45:48;;;;;;;12.73;11.35;;;;;;;6.06;100.00;101155.03;5057232;28;20040;-56
2023/04/02 01:48:18;;;;;;;13.20;11.65;;;;;;;6.02;100.00;101162.25;5058854;28;20494;-56
2023/04/02 01:50:47;;;;;;;13.70;12.00;;;;;;;6.01;100.00;101171.13;5060443;28;20033;-56
2023/04/02 01:53:14;;;;;;;13.05;11.68;;;;;;;5.98;100.00;101165.13;5056741;28;20021;-55
2023/04/02 01:55:49;;;;;;;13.13;11.82;;;;;;;5.95;100.00;101175.81;5061060;28;20483;-56
2023/04/02 01:58:24;;;;;;;12.93;11.57;;;;;;;5.93;100.00;101189.09;5056242;28;20119;-57
2023/04/02 02:01:00;;;;;;;16.48;11.88;;;;;;;5.93;100.00;101189.09;5066281;28;20039;-56
2023/04/02 02:03:26;;;;;;;12.60;11.30;;;;;;;5.87;100.00;101184.97;5060647;28;20032;-56
2023/04/02 02:05:52;;;;;;;11.20;10.10;;;;;;;5.86;100.00;101187.69;5053493;28;20037;-56
2023/04/02 02:08:33;;;;;;;10.90;9.30;;;;;;;5.83;100.00;101199.25;5059006;28;20482;-56
2023/04/02 02:10:59;;;;;;;10.23;9.23;;;;;;;5.79;100.00;101199.47;5054804;28;20631;-56
2023/04/02 02:13:24;;;;;;;10.88;9.85;;;;;;;5.78;100.00;101211.81;5061718;28;20044;-54
2023/04/02 02:15:50;;;;;;;9.95;8.95;;;;;;;5.74;100.00;101220.78;5060201;28;20040;-57
2023/04/02 02:18:22;;;;;;;8.95;8.02;;;;;;;5.69;100.00;101210.47;5063538;28;20037;-56
2023/04/02 02:20:47;;;;;;;9.25;8.35;;;;;;;5.70;100.00;101221.88;5057201;28;20040;-56
2023/04/02 02:23:14;;;;;;;7.60;7.00;;;;;;;5.69;100.00;101222.81;5059767;28;20378;-56
2023/04/02 02:25:39;;;;;;;8.50;7.50;;;;;;;5.67;100.00;101232.56;5059273;28;20032;-56
2023/04/02 02:28:16;;;;;;;9.40;6.95;;;;;;;5.65;100.00;101232.66;5061797;28;20029;-56
2023/04/02 02:30:43;;;;;;;8.10;7.30;;;;;;;5.63;100.00;101239.78;5059438;28;20040;-56
2023/04/02 02:33:20;;;;;;;6.63;5.97;;;;;;;5.61;100.00;101236.34;5058300;28;20077;-55
2023/04/02 02:35:55;;;;;;;6.60;6.00;;;;;;;5.57;100.00;101250.63;5060952;28;20044;-54
2023/04/02 02:38:27;;;;;;;6.55;5.95;;;;;;;5.54;100.00;101253.41;5061965;28;20032;-55
2023/04/02 02:40:57;;;;;;;6.32;5.82;;;;;;;5.51;100.00;101259.69;5060577;28;20040;-56
2023/04/02 02:43:23;;;;;;;6.57;5.97;;;;;;;5.50;100.00;101267.66;5062747;28;20032;-56
2023/04/02 02:45:50;;;;;;;5.97;5.47;;;;;;;5.49;100.00;101268.59;5060968;28;20157;-53
2023/04/02 02:48:20;;;;;;;6.47;5.75;;;;;;;5.47;100.00;101266.03;5062901;28;20032;-58
2023/04/02 02:50:46;;;;;;;7.25;5.97;;;;;;;5.46;100.00;101266.09;5062561;28;20477;-55
2023/04/02 02:53:20;;;;;;;7.05;6.05;;;;;;;5.48;100.00;101285.31;5057389;28;20086;-54
2023/04/02 02:55:48;;;;;;;6.07;5.47;;;;;;;5.46;100.00;101287.16;5063004;28;20036;-52
2023/04/02 02:58:18;;;;;;;6.15;5.65;;;;;;;5.45;100.00;101294.22;5060197;28;20043;-53
2023/04/02 03:00:45;;;;;;;6.82;6.18;;;;;;;5.47;100.00;101296.78;5057134;28;20060;-55
2023/04/02 03:03:15;;;;;;;6.38;5.78;;;;;;;5.48;100.00;101295.84;5061986;28;20039;-56
2023/04/02 03:05:41;;;;;;;7.38;6.43;;;;;;;5.49;100.00;101302.81;5058597;28;20401;-56
2023/04/02 03:08:17;;;;;;;7.80;7.10;;;;;;;5.48;100.00;101304.63;5063205;28;20024;-56
2023/04/02 03:10:51;;;;;;;10.30;8.07;;;;;;;5.49;100.00;101305.47;5059589;28;20029;-55
2023/04/02 03:13:34;;;;;;;9.45;8.38;;;;;;;5.48;100.00;101312.53;5060104;28;20478;-53
2023/04/02 03:16:02;;;;;;;10.00;8.93;;;;;;;5.46;100.00;101305.59;5060904;28;20029;-55
2023/04/02 03:18:37;;;;;;;10.40;9.40;;;;;;;5.44;100.00;101324.13;5060333;28;20056;-53
2023/04/02 03:21:40;;;;;;;10.45;9.35;;;;;;;5.45;100.00;101333.75;5063664;28;20024;-53
2023/04/02 03:24:16;;;;;;;10.63;9.63;;;;;;;5.40;100.00;101346.28;5059103;28;20033;-53
2023/04/02 03:27:07;;;;;;;11.63;9.45;;;;;;;5.40;100.00;101350.69;5056779;28;20393;-56
2023/04/02 03:29:38;;;;;;;9.57;8.65;;;;;;;5.31;100.00;101360.75;5063561;28;20036;-56
2023/04/02 03:32:20;;;;;;;11.63;9.55;;;;;;;5.31;100.00;101360.75;5057173;28;20029;-55
2023/04/02 03:34:52;;;;;;;10.65;9.30;;;;;;;5.32;100.00;101365.06;5068119;28;20139;-56
2023/04/02 03:37:32;;;;;;;10.77;9.50;;;;;;;5.32;100.00;101369.50;5057190;28;20072;-55
2023/04/02 03:40:03;;;;;;;;;;;;;;;5.38;100.00;101385.88;5057329;28;20029;-56
2023/04/02 03:42:45;;;;;;;13.88;9.63;;;;;;;5.27;100.00;101390.75;5063793;28;20338;-55
2023/04/02 03:45:10;;;;;;;13.05;9.98;;;;;;;5.22;100.00;101395.38;5056265;28;20501;-55
2023/04/02 03:47:41;;;;;;;12.35;9.40;;;;;;;5.17;100.00;101400.84;5056742;28;20029;-53
2023/04/02 03:50:30;;;;;;;11.15;9.40;;;;;;;5.16;100.00;101403.56;5059266;28;20031;-56
2023/04/02 03:52:57;;;;;;;9.88;8.15;;;;;;;5.10;100.00;101411.75;5061454;28;20055;-54
2023/04/02 03:55:30;;;;;;;8.93;8.10;;;;;;;5.05;100.00;101417.22;5062642;28;20044;-54
2023/04/02 03:58:05;;;;;;;10.45;9.45;;;;;;;5.03;100.00;101426.09;5055632;28;20036;-54
2023/04/02 04:00:38;;;;;;;10.27;8.77;;;;;;;5.00;100.00;101430.56;5064553;28;20371;-55
2023/04/02 04:03:17;;;;;;;9.27;8.30;;;;;;;4.99;100.00;101428.00;5070264;28;20043;-57
2023/04/02 04:06:05;;;;;;;9.13;8.02;;;;;;;4.98;100.00;101439.47;5056641;28;20072;-55
2023/04/02 04:08:41;;;;;;;10.13;9.00;;;;;;;4.93;100.00;101434.41;5063840;28;20087;-57
2023/04/02 04:11:13;;;;;;;10.20;8.70;;;;;;;4.91;100.00;101438.88;5057300;28;20083;-55
2023/04/02 04:13:53;;;;;;;11.93;9.20;;;;;;;4.92;100.00;101445.00;5056504;28;20033;-56
2023/04/02 04:16:25;;;;;;;12.05;9.85;;;;;;;4.89;100.00;101453.88;5056110;28;20406;-56
2023/04/02 04:19:02;;;;;;;12.10;9.93;;;;;;;4.91;100.00;101459.94;5053960;28;20381;-56
2023/04/02 04:21:29;;;;;;;12.60;9.70;;;;;;;4.89;100.00;101469.66;5062534;28;20046;-57
2023/04/02 04:24:02;;;;;;;12.20;10.52;;;;;;;4.82;100.00;101469.06;5062016;28;20473;-56
2023/04/02 04:26:52;;;;;;;11.32;10.13;;;;;;;4.89;100.00;101482.81;5057570;28;20067;-55
2023/04/02 04:29:44;;;;;;;12.85;10.45;;;;;;;4.89;100.00;101492.50;5060876;28;20036;-56
2023/04/02 04:32:31;;;;;;;15.48;10.68;;;;;;;4.90;100.00;101491.59;5054243;28;20466;-57
2023/04/02 04:35:07;;;;;;;14.50;11.00;;;;;;;4.90;100.00;101502.97;5067233;28;20033;-57
2023/04/02 04:37:39;;;;;;;12.60;10.25;;;;;;;4.89;100.00;101506.50;5060881;28;20034;-56
2023/04/02 04:40:28;;;;;;;11.52;10.32;;;;;;;4.92;100.00;101514.28;5056435;28;20032;-56
2023/04/02 04:42:59;;;;;;;9.93;8.88;;;;;;;4.88;100.00;101519.75;5059925;28;20032;-56
2023/04/02 04:45:45;;;;;;;10.68;9.07;;;;;;;4.85;100.00;101515.47;5058633;28;20032;-56
2023/04/02 04:48:25;;;;;;;10.73;9.50;;;;;;;4.82;100.00;101526.13;5059738;28;20037;-57
2023/04/02 04:51:01;;;;;;;11.75;8.68;;;;;;;4.81;100.00;101537.56;5058841;28;20028;-56
2023/04/02 04:53:29;;;;;;;10.05;8.50;;;;;;;4.75;100.00;101535.19;5060302;28;20032;-57
2023/04/02 04:55:58;;;;;;;9.13;7.40;;;;;;;4.75;100.00;101538.69;5060357;28;20032;-55
2023/04/02 04:58:35;;;;;;;8.52;7.70;;;;;;;4.77;100.00;101557.03;5059817;28;20500;-56
2023/04/02 05:01:11;;;;;;;9.48;7.68;;;;;;;4.74;100.00;101562.44;5052114;28;20032;-57
2023/04/02 05:03:43;;;;;;;9.07;7.82;;;;;;;4.71;100.00;101557.28;5061494;28;20481;-57
2023/04/02 05:06:31;;;;;;;7.97;7.15;;;;;;;4.70;100.00;101566.13;5055195;28;20032;-56
2023/04/02 05:09:04;;;;;;;9.43;7.35;;;;;;;4.63;100.00;101574.25;5059826;28;20043;-57
2023/04/02 05:11:40;;;;;;;11.25;6.93;;;;;;;4.59;100.00;101580.53;5060359;28;20063;-57
2023/04/02 05:14:15;;;;;;;8.07;7.00;;;;;;;4.56;100.00;101577.16;5053189;28;20034;-57
2023/04/02 05:16:58;;;;;;;8.88;7.57;;;;;;;4.57;100.00;101581.53;5060710;28;20052;-55
2023/04/02 05:19:45;;;;;;;9.98;7.43;;;;;;;4.57;100.00;101589.41;5060026;28;20040;-55
2023/04/02 05:22:45;;;;;;;9.38;8.20;;;;;;;4.56;100.00;101593.84;5059122;28;20127;-56
2023/04/02 05:25:29;;;;;;;10.00;7.93;;;;;;;4.51;100.00;101592.28;5042383;28;20527;-55
2023/04/02 05:28:28;;;;;;;10.73;7.65;;;;;;;4.46;100.00;101597.72;5062740;28;20017;-56
2023/04/02 05:31:13;;;;;;;8.18;7.03;;;;;;;4.43;100.00;101605.75;5060208;28;20036;-55
2023/04/02 05:33:43;;;;;;;9.18;6.78;;;;;;;4.40;100.00;101611.97;5053225;28;20120;-56
2023/04/02 05:36:11;;;;;;;8.20;7.38;;;;;;;4.39;100.00;101617.28;5054924;28;20078;-53
2023/04/02 05:38:42;;;;;;;9.43;6.90;;;;;;;4.38;100.00;101616.44;5057988;28;20029;-55
2023/04/02 05:41:23;;;;;;;8.95;6.97;;;;;;;4.40;100.00;101622.50;5055966;28;20392;-56
2023/04/02 05:43:55;;;;;;;9.38;7.60;;;;;;;4.38;100.00;101626.09;5061135;28;20081;-56
2023/04/02 05:46:27;;;;;;;9.73;7.07;;;;;;;4.38;100.00;101632.22;5058236;28;20041;-56
2023/04/02 05:48:57;;;;;;;8.60;7.22;;;;;;;4.38;100.00;101633.97;5062015;28;20658;-56
2023/04/02 05:51:45;;;;;;;8.15;7.03;;;;;;;4.42;100.00;101641.69;5055402;28;20496;-56
2023/04/02 05:54:24;;;;;;;8.93;6.97;;;;;;;4.39;100.00;101644.44;5054850;28;20470;-57
2023/04/02 05:56:58;;;;;;;9.80;6.78;;;;;;;4.36;100.00;101657.69;5055501;28;20044;-56
2023/04/02 05:59:54;;;;;;;10.55;7.68;;;;;;;4.43;100.00;101663.63;5064876;28;20173;-56
2023/04/02 06:02:32;;;;;;;9.02;7.32;;;;;;;4.41;100.00;101670.69;5062969;28;20048;-55
2023/04/02 06:05:11;;;;;;;11.45;8.18;;;;;;;4.40;100.00;101674.25;5059832;28;20031;-57
2023/04/02 06:07:45;;;;;;;11.18;8.60;;;;;;;4.40;100.00;101676.88;5060607;28;20232;-56
2023/04/02 06:10:16;;;;;;;9.05;8.15;;;;;;;4.39;100.00;101669.91;5055806;28;20115;-56
2023/04/02 06:13:02;;;;;;;11.60;9.00;;;;;;;4.42;100.00;101683.78;5063685;28;20036;-56
2023/04/02 06:15:29;;;;;;;10.05;8.98;;;;;;;4.40;100.00;101690.88;5058638;28;20024;-56
2023/04/02 06:18:16;;;;;;;14.10;10.52;;;;;;;4.39;100.00;101691.78;5060180;28;20041;-56
2023/04/02 06:20:42;;;;;;;14.15;10.23;;;;;;;4.37;100.00;101704.13;5067683;28;20107;-56
2023/04/02 06:23:34;;;;;;;13.07;10.25;;;;;;;4.37;100.00;101713.81;5064553;28;20136;-56
2023/04/02 06:26:15;;;;;;;13.30;9.52;;;;;;;4.33;100.00;101709.56;5067254;28;20259;-56
2023/04/02 06:28:47;;;;;;;10.90;8.93;;;;;;;4.28;100.00;101716.75;5055967;28;20052;-56
2023/04/02 06:31:18;;;;;;;9.30;8.23;;;;;;;4.31;100.00;101732.44;5063360;28;20032;-55
2023/04/02 06:33:43;;;;;;;12.38;9.15;;;;;;;4.25;100.00;101731.75;5061635;28;20051;-56
2023/04/02 06:36:11;;;;;;;13.73;9.43;;;;;;;4.20;100.00;101738.94;5064462;28;20025;-56
2023/04/02 06:38:36;;;;;;;13.52;9.10;;;;;;;4.17;100.00;101739.06;5063432;28;20116;-56
2023/04/02 06:41:10;;;;;;;13.63;8.88;;;;;;;4.16;100.00;101747.84;5059986;28;20438;-56
2023/04/02 06:43:46;;;;;;;14.15;8.52;;;;;;;4.14;100.00;101752.28;5051965;28;20504;-56
2023/04/02 06:46:19;;;;;;;11.93;7.88;;;;;;;4.12;100.00;101758.53;5057747;28;20025;-56
2023/04/02 06:48:47;;;;;;;13.10;8.32;;;;;;;4.11;100.00;101765.53;5065685;28;20044;-56
2023/04/02 06:51:17;;;;;;;12.32;8.43;;;;;;;4.12;100.00;101771.69;5060224;28;20077;-55
2023/04/02 06:53:46;;;;;;;8.60;7.70;;;;;;;4.13;100.00;101778.63;5067256;28;20094;-55
2023/04/02 06:56:30;;;;;;;;;;;;;;;4.20;100.00;101788.91;5059679;28;20029;-56
2023/04/02 06:58:56;;;;;;;9.73;6.05;;;;;;;4.10;100.00;101798.03;5054982;28;19944;-54
2023/04/02 07:01:26;;;;;;;12.45;6.65;;;;;;;4.07;99.75;101801.59;5062750;28;20489;-53
2023/04/02 07:03:52;;;;;;;10.98;7.10;;;;;;;4.08;100.00;101802.47;5059599;28;20055;-56
2023/04/02 07:06:20;;;;;;;8.20;6.25;;;;;;;4.10;100.00;101811.16;5058085;28;20429;-56
2023/04/02 07:08:45;;;;;;;8.68;6.70;;;;;;;4.13;100.00;101820.72;5053791;28;20108;-56
2023/04/02 07:11:14;;;;;;;7.93;6.18;;;;;;;4.14;100.00;101823.28;5052301;28;20442;-57
2023/04/02 07:13:39;;;;;;;8.20;5.85;;;;;;;4.18;99.81;101835.44;5056373;28;20017;-57
2023/04/02 07:16:05;;;;;;;7.28;5.65;;;;;;;4.17;99.93;101841.59;5055684;28;20035;-57
2023/04/02 07:18:32;;;;;;;10.20;5.72;;;;;;;4.16;98.41;101847.75;5054934;28;20037;-58
2023/04/02 07:20:58;;;;;;;10.05;5.47;;;;;;;4.14;98.05;101848.72;5059549;28;20055;-56
2023/04/02 07:23:24;;;;;;;5.97;5.05;;;;;;;4.11;99.05;101854.09;5055516;28;20510;-57
2023/04/02 07:25:52;;;;;;;6.50;5.00;;;;;;;4.08;97.64;101870.84;5056901;28;20036;-56
2023/04/02 07:28:18;;;;;;;7.70;5.18;;;;;;;4.05;96.95;101871.78;5053313;28;20123;-57
2023/04/02 07:30:45;;;;;;;6.65;4.85;;;;;;;4.04;97.67;101875.31;5065159;28;20051;-55
2023/04/02 07:33:15;;;;;;;7.82;4.60;;;;;;;4.02;96.97;101892.91;5054901;28;20370;-57
2023/04/02 07:35:40;;;;;;;10.85;4.55;;;;;;;3.99;96.58;101890.38;5054151;28;20063;-56
2023/04/02 07:38:06;;;;;;;6.53;4.63;;;;;;;3.98;97.42;101893.06;5053813;28;20108;-56
2023/04/02 07:40:31;;;;;;;6.03;4.20;;;;;;;3.95;96.32;101898.44;5057407;28;20469;-56
2023/04/02 07:42:56;;;;;;;9.48;4.68;;;;;;;3.93;96.45;101902.84;5060495;28;20033;-56
2023/04/02 07:45:21;;;;;;;6.35;4.10;;;;;;;3.88;96.16;101898.63;5064514;28;20028;-57
2023/04/02 07:47:47;;;;;;;8.25;4.10;;;;;;;3.87;96.21;101896.88;5056983;28;20029;-56
2023/04/02 07:50:12;;;;;;;6.75;4.28;;;;;;;3.88;97.08;101901.25;5052825;28;20466;-55
2023/04/02 07:52:41;;;;;;;5.97;3.92;;;;;;;3.88;97.40;101901.25;5058042;28;20112;-56
2023/04/02 07:55:09;;;;;;;9.57;4.07;;;;;;;3.94;96.99;101905.44;5059414;28;20032;-55
2023/04/02 07:57:40;;;;;;;8.82;4.10;;;;;;;3.94;95.70;101912.47;5056894;28;20367;-58
2023/04/02 08:00:11;;;;;;;7.05;3.88;;;;;;;3.98;96.55;101921.97;5067590;28;20036;-56
2023/04/02 08:02:36;;;;;;;7.88;4.20;;;;;;;4.00;95.51;101926.28;5067124;28;20142;-54
2023/04/02 08:05:01;;;;;;;9.45;4.30;;;;;;;4.03;96.46;101926.19;5062686;28;20529;-57
2023/04/02 08:07:27;;;;;;;8.52;3.67;;;;;;;4.04;95.68;101935.78;5058534;28;20032;-60
2023/04/02 08:09:52;;;;;;;6.03;3.72;;;;;;;4.07;96.08;101940.09;5062808;28;20032;-60
2023/04/02 08:12:18;;;;;;;9.75;3.83;;;;;;;4.07;94.59;101937.47;5057716;28;20112;-60
2023/04/02 08:14:43;;;;;;;8.57;3.45;;;;;;;4.08;93.76;101939.19;5058153;28;20033;-61
2023/04/02 08:17:08;;;;;;;7.38;3.75;;;;;;;4.07;94.70;101943.56;5059444;28;20401;-59
2023/04/02 08:19:33;;;;;;;9.07;4.15;;;;;;;4.07;93.47;101942.72;5061552;28;20107;-61
2023/04/02 08:21:59;;;;;;;8.50;3.47;;;;;;;4.07;94.00;101954.09;5060493;28;20138;-60
2023/04/02 08:24:24;;;;;;;8.48;3.75;;;;;;;4.13;95.32;101958.31;5061345;28;20026;-60
2023/04/02 08:26:53;;;;;;;5.68;3.50;;;;;;;4.15;93.88;101967.00;5054641;28;20044;-60
2023/04/02 08:29:19;;;;;;;5.50;3.50;;;;;;;4.17;94.08;101973.06;5062415;28;20113;-60
2023/04/02 08:31:44;;;;;;;8.02;3.92;;;;;;;4.19;93.30;101973.88;5058180;28;20496;-61
2023/04/02 08:34:10;;;;;;;5.32;3.38;;;;;;;4.25;95.29;101986.84;5058725;28;20029;-60
2023/04/02 08:36:38;;;;;;;5.60;3.35;;;;;;;4.25;93.44;101986.84;5058446;28;20036;-60
2023/04/02 08:39:09;;;;;;;5.80;3.23;;;;;;;4.25;93.12;101997.34;5059711;28;20085;-60
2023/04/02 08:41:39;;;;;;;5.80;3.55;;;;;;;4.22;92.69;101993.97;5056542;28;20482;-60
2023/04/02 08:44:32;;;;;;;4.35;3.08;;;;;;;4.33;95.07;102002.38;5061195;28;20054;-60
2023/04/02 08:47:04;;;;;;;5.63;3.50;;;;;;;4.35;94.42;102007.59;5060492;28;20492;-61
2023/04/02 08:50:15;;;;;;;6.97;3.65;;;;;;;4.48;96.41;102013.31;5060281;28;20489;-60
2023/04/02 08:52:40;;;;;;;4.25;3.15;;;;;;;4.44;92.77;102005.50;5060449;28;20569;-62
2023/04/02 08:55:32;;;;;;;4.85;3.10;;;;;;;4.48;92.72;102023.81;5060478;28;20119;-60
2023/04/02 08:58:24;;;;;;;4.97;2.90;;;;;;;4.51;92.62;102023.72;5061397;28;20045;-60
2023/04/02 09:00:53;;;;;;;7.72;2.88;;;;;;;4.41;92.36;102042.47;5061406;28;20539;-60
2023/04/02 09:03:41;;;;;;;6.05;3.33;;;;;;;4.40;92.39;102034.63;5061739;28;20032;-61
2023/04/02 09:06:11;;;;;;;5.75;3.15;;;;;;;4.42;92.49;102059.09;5064527;28;20033;-60
2023/04/02 09:08:38;;;;;;;4.13;2.83;;;;;;;4.41;92.02;102054.72;5062217;28;20046;-60
2023/04/02 09:11:26;;;;;;;3.58;2.75;;;;;;;4.45;93.08;102057.22;5058693;28;20490;-60
2023/04/02 09:13:56;;;;;;;6.20;3.10;;;;;;;4.45;91.76;102061.63;5061416;28;20129;-61
2023/04/02 09:16:35;;;;;;;4.03;3.17;;;;;;;4.49;92.66;102063.25;5068628;28;20031;-61
2023/04/02 09:19:01;;;;;;;;;;;;;;;4.60;93.51;102065.56;5060738;28;20028;-61
2023/04/02 09:21:33;;;;;;;6.22;2.90;;;;;;;4.53;90.15;102070.16;5061511;28;19916;-61
2023/04/02 09:23:59;;;;;;;7.57;2.95;;;;;;;4.62;91.96;102074.25;5057405;28;20025;-61
2023/04/02 09:26:30;;;;;;;4.70;2.63;;;;;;;4.63;91.68;102089.13;5062910;28;20551;-61
2023/04/02 09:29:12;;;;;;;6.90;3.33;;;;;;;4.67;91.72;102097.78;5056804;28;20029;-61
2023/04/02 09:31:43;;;;;;;6.30;3.28;;;;;;;4.69;90.86;102095.97;5061523;28;20043;-60
2023/04/02 09:34:34;;;;;;;6.80;2.80;;;;;;;4.74;91.47;102104.56;5056106;28;20039;-61
2023/04/02 09:37:15;;;;;;;5.70;2.47;;;;;;;4.70;90.43;102105.59;5056473;28;20389;-61
2023/04/02 09:39:41;;;;;;;5.45;2.92;;;;;;;4.71;90.36;102112.56;5054761;28;20109;-62
2023/04/02 09:42:27;;;;;;;5.45;2.78;;;;;;;4.75;90.91;102112.41;5061641;28;20570;-61
2023/04/02 09:45:11;;;;;;;6.45;2.72;;;;;;;4.80;90.26;102099.13;5054355;28;20080;-61
2023/04/02 09:47:38;;;;;;;4.00;2.80;;;;;;;4.78;90.60;102099.16;5050799;28;20102;-62
2023/04/02 09:50:22;;;;;;;6.63;3.17;;;;;;;4.87;90.49;102108.53;5056064;28;20500;-61
2023/04/02 09:52:48;;;;;;;6.15;2.90;;;;;;;4.91;90.71;102123.34;5053835;28;20043;-61
2023/04/02 09:55:17;;;;;;;6.93;2.90;;;;;;;4.94;90.04;102128.47;5059678;28;20017;-61
2023/04/02 09:57:42;;;;;;;6.10;3.13;;;;;;;4.94;90.59;102138.16;5055342;28;20064;-61
2023/04/02 10:00:24;;;;;;;5.60;3.00;;;;;;;4.95;89.98;102143.38;5071238;28;20059;-61
2023/04/02 10:03:30;;;;;;;9.20;2.80;;;;;;;4.97;90.78;102149.44;5056581;28;20041;-61
2023/04/02 10:06:14;;;;;;;4.65;2.92;;;;;;;4.98;89.99;102145.91;5055044;28;20416;-61
2023/04/02 10:08:42;;;;;;;6.53;3.03;;;;;;;4.94;89.80;102149.53;5058620;28;20036;-61
2023/04/02 10:11:13;;;;;;;6.30;2.83;;;;;;;4.92;90.47;102148.72;5055850;28;20033;-61
2023/04/02 10:13:41;;;;;;;7.53;3.25;;;;;;;4.97;89.99;102156.50;5061794;28;20029;-61
2023/04/02 10:16:16;;;;;;;6.13;3.03;;;;;;;4.95;89.66;102159.16;5057714;28;20031;-61
2023/04/02 10:18:53;;;;;;;5.18;2.90;;;;;;;4.91;89.30;102162.81;5055026;28;20474;-61
2023/04/02 10:21:25;;;;;;;5.35;2.85;;;;;;;4.91;89.86;102168.09;5059794;28;20390;-62
2023/04/02 10:23:51;;;;;;;3.63;3.03;;;;;;;4.93;90.77;102171.53;5056063;28;20094;-62
2023/04/02 10:26:53;;;;;;;5.65;3.13;;;;;;;4.96;90.58;102175.81;5057938;28;20033;-61
2023/04/02 10:29:37;;;;;;;6.45;3.22;;;;;;;5.01;91.26;102187.06;5060619;28;20025;-61
2023/04/02 10:32:17;;;;;;;5.30;2.83;;;;;;;5.05;90.71;102183.44;5059631;28;20116;-61
2023/04/02 10:35:02;;;;;;;7.55;3.00;;;;;;;5.09;90.92;102181.56;5058179;28;20089;-61
2023/04/02 10:37:47;;;;;;;6.10;3.03;;;;;;;5.14;90.31;102190.19;5059583;28;20097;-61
2023/04/02 10:40:34;;;;;;;9.63;3.03;;;;;;;5.12;89.40;102198.13;5056216;28;20051;-61
2023/04/02 10:43:27;;;;;;;5.18;2.90;;;;;;;5.15;89.83;102213.84;5058123;28;20036;-61
2023/04/02 10:46:20;;;;;;;7.97;2.83;;;;;;;5.19;88.59;102209.31;5063911;28;20128;-61
2023/04/02 10:48:54;;;;;;;7.20;3.10;;;;;;;5.12;88.23;102219.19;5061551;28;20059;-61
2023/04/02 10:51:40;;;;;;;6.32;3.00;;;;;;;5.16;88.13;102214.69;5057720;28;20039;-61
2023/04/02 10:54:08;;;;;;;5.38;2.90;;;;;;;5.19;88.11;102220.72;5058087;28;20032;-61
2023/04/02 10:56:34;;;;;;;5.70;2.80;;;;;;;5.23;87.51;102215.34;5060225;28;20021;-62
2023/04/02 10:59:11;;;;;;;3.38;2.63;;;;;;;5.26;88.55;102221.41;5059473;28;20462;-61
2023/04/02 11:01:40;;;;;;;6.18;3.03;;;;;;;5.32;89.72;102228.25;5058533;28;20094;-62
2023/04/02 11:04:21;;;;;;;4.53;3.00;;;;;;;5.34;86.66;102224.63;5061789;28;20031;-61
2023/04/02 11:07:00;;;;;;;5.25;3.03;;;;;;;5.36;87.36;102227.22;5062247;28;20135;-61
2023/04/02 11:09:30;;;;;;;5.63;3.10;;;;;;;5.41;87.77;102240.25;5063684;28;20457;-61
2023/04/02 11:11:59;;;;;;;4.32;2.67;;;;;;;5.48;88.13;102236.50;5061497;28;20652;-61
2023/04/02 11:14:28;;;;;;;6.50;3.17;;;;;;;5.59;88.48;102242.28;5061264;28;20474;-61
2023/04/02 11:16:57;;;;;;;9.93;2.95;;;;;;;5.59;85.37;102258.09;5060928;28;20041;-61
2023/04/02 11:19:22;;;;;;;;;;;;;;;5.74;88.76;102249.69;5062445;28;20032;-61
2023/04/02 11:21:59;;;;;;;4.33;2.53;;;;;;;5.68;84.40;102263.06;5062372;28;20415;-61
2023/04/02 11:24:24;;;;;;;5.97;2.97;;;;;;;5.72;85.38;102261.19;5063076;28;20116;-61
2023/04/02 11:26:51;;;;;;;5.25;3.00;;;;;;;5.78;86.24;102262.75;5056039;28;20187;-61
2023/04/02 11:29:40;;;;;;;6.18;3.15;;;;;;;5.86;85.40;102266.88;5062665;28;20114;-61
2023/04/02 11:32:26;;;;;;;7.43;2.95;;;;;;;5.95;84.60;102270.13;5056202;28;20119;-63
2023/04/02 11:34:52;;;;;;;4.68;3.03;;;;;;;5.97;84.52;102279.72;5054265;28;20199;-60
2023/04/02 11:37:44;;;;;;;5.57;3.00;;;;;;;5.99;84.71;102283.16;5061598;28;20043;-61
2023/04/02 11:40:09;;;;;;;5.75;3.00;;;;;;;6.03;85.26;102278.63;5054697;28;20524;-61
2023/04/02 11:42:40;;;;;;;4.53;2.93;;;;;;;6.05;84.61;102280.31;5063450;28;20104;-61
2023/04/02 11:45:25;;;;;;;3.90;2.80;;;;;;;6.08;83.74;102282.84;5056780;28;20298;-61
2023/04/02 11:47:59;;;;;;;4.88;2.95;;;;;;;6.13;84.26;102282.69;5061204;28;20024;-61
2023/04/02 11:50:34;;;;;;;6.07;3.15;;;;;;;6.19;84.71;102282.47;5062223;28;20036;-61
2023/04/02 11:53:11;;;;;;;5.03;2.78;;;;;;;6.28;85.32;102283.94;5062033;28;20033;-60
2023/04/02 11:56:00;;;;;;;7.05;3.03;;;;;;;6.28;83.07;102297.13;5062742;28;20024;-61
2023/04/02 11:58:57;;;;;;;4.68;2.92;;;;;;;6.33;85.36;102304.84;5061212;28;20082;-61